createdAt,value
2019-03-04T00:01:11.734Z,10.71
2019-03-04T00:03:38.438Z,10.73
2019-03-04T00:06:04.254Z,10.75
2019-03-04T00:08:33.007Z,10.79
2019-03-04T00:10:58.887Z,10.82
2019-03-04T00:13:24.830Z,10.84
2019-03-04T00:15:50.730Z,10.97
2019-03-04T00:18:16.658Z,11.00
2019-03-04T00:20:45.617Z,11.04
2019-03-04T00:23:11.562Z,11.08
2019-03-04T00:25:40.580Z,11.12
2019-03-04T00:28:06.371Z,11.10
2019-03-04T00:30:35.238Z,11.09
2019-03-04T00:33:01.050Z,11.10
2019-03-04T00:35:29.859Z,11.11
2019-03-04T00:37:55.688Z,11.13
2019-03-04T00:40:24.530Z,11.13
2019-03-04T00:42:50.624Z,11.21
2019-03-04T00:45:19.205Z,11.23
2019-03-04T00:47:45.044Z,11.27
2019-03-04T00:50:16.471Z,11.30
2019-03-04T00:52:42.506Z,11.34
2019-03-04T00:55:09.688Z,11.31
2019-03-04T00:57:35.496Z,11.28
2019-03-04T01:00:02.338Z,11.23
2019-03-04T01:02:28.176Z,11.14
2019-03-04T01:04:54.272Z,10.92
2019-03-04T01:07:20.373Z,10.92
2019-03-04T01:09:46.220Z,10.79
2019-03-04T01:12:15.345Z,10.69
2019-03-04T01:14:41.154Z,10.00
2019-03-04T01:17:10.096Z,10.36
2019-03-04T01:19:35.900Z,10.29
2019-03-04T01:22:04.823Z,10.25
2019-03-04T01:24:30.961Z,10.18
2019-03-04T01:26:56.800Z,10.14
2019-03-04T01:29:22.603Z,10.19
2019-03-04T01:31:48.402Z,10.18
2019-03-04T01:34:17.020Z,10.17
2019-03-04T01:36:43.110Z,10.19
2019-03-04T01:39:10.437Z,10.23
2019-03-04T01:41:36.507Z,10.35
2019-03-04T01:44:05.391Z,10.35
2019-03-04T01:46:31.501Z,10.39
2019-03-04T01:49:00.831Z,10.43
2019-03-04T01:51:26.957Z,10.40
2019-03-04T01:53:54.398Z,10.34
2019-03-04T01:56:20.209Z,10.31
2019-03-04T01:58:50.547Z,10.34
2019-03-04T02:01:16.391Z,10.40
2019-03-04T02:03:42.520Z,10.45
2019-03-04T02:06:08.619Z,10.52
2019-03-04T02:08:34.736Z,10.48
2019-03-04T02:11:00.845Z,10.52
2019-03-04T02:13:26.983Z,10.50
2019-03-04T02:15:55.810Z,10.57
2019-03-04T02:18:21.902Z,10.55
2019-03-04T02:20:50.782Z,10.52
2019-03-04T02:23:16.587Z,10.48
2019-03-04T02:25:49.286Z,10.42
2019-03-04T02:28:15.458Z,10.45
2019-03-04T02:30:41.261Z,10.46
2019-03-04T02:33:07.128Z,10.45
2019-03-04T02:35:34.504Z,10.52
2019-03-04T02:38:00.341Z,10.43
2019-03-04T02:40:26.427Z,10.56
2019-03-04T02:42:52.214Z,10.56
2019-03-04T02:45:18.681Z,10.55
2019-03-04T02:47:47.255Z,10.60
2019-03-04T02:50:13.977Z,10.55
2019-03-04T02:52:42.898Z,10.42
2019-03-04T02:55:08.851Z,10.35
2019-03-04T02:57:37.614Z,10.35
2019-03-04T03:00:07.270Z,10.38
2019-03-04T03:02:33.086Z,10.34
2019-03-04T03:04:59.154Z,10.36
2019-03-04T03:07:25.229Z,10.39
2019-03-04T03:09:51.057Z,10.41
2019-03-04T03:12:20.096Z,10.32
2019-03-04T03:14:45.912Z,10.39
2019-03-04T03:17:11.745Z,10.41
2019-03-04T03:19:37.838Z,10.36
2019-03-04T03:22:04.129Z,10.18
2019-03-04T03:24:31.239Z,10.15
2019-03-04T03:26:57.150Z,10.08
2019-03-04T03:29:27.985Z,9.94
2019-03-04T03:31:53.786Z,9.84
2019-03-04T03:34:22.594Z,9.76
2019-03-04T03:36:48.395Z,9.67
2019-03-04T03:39:17.238Z,9.65
2019-03-04T03:41:43.325Z,9.61
2019-03-04T03:44:11.922Z,9.38
2019-03-04T03:46:37.798Z,9.59
2019-03-04T03:49:06.612Z,9.53
2019-03-04T03:51:32.782Z,9.47
2019-03-04T03:53:58.970Z,9.45
2019-03-04T03:56:24.908Z,9.48
2019-03-04T03:58:50.724Z,9.58
2019-03-04T04:01:16.523Z,9.64
2019-03-04T04:03:42.352Z,9.73
2019-03-04T04:06:11.267Z,9.67
2019-03-04T04:08:37.405Z,9.66
2019-03-04T04:11:08.011Z,9.70
2019-03-04T04:13:33.823Z,9.77
2019-03-04T04:16:02.675Z,9.83
2019-03-04T04:18:28.500Z,9.82
2019-03-04T04:20:57.094Z,9.89
2019-03-04T04:23:22.888Z,9.75
2019-03-04T04:25:51.531Z,9.72
2019-03-04T04:28:17.333Z,9.72
2019-03-04T04:30:43.410Z,9.67
2019-03-04T04:33:09.232Z,9.69
2019-03-04T04:35:35.030Z,9.75
2019-03-04T04:38:03.867Z,9.76
2019-03-04T04:40:29.991Z,9.82
2019-03-04T04:42:59.067Z,9.74
2019-03-04T04:45:25.230Z,9.74
2019-03-04T04:47:51.076Z,9.73
2019-03-04T04:50:19.629Z,9.85
2019-03-04T04:52:48.438Z,9.85
2019-03-04T04:55:14.256Z,9.83
2019-03-04T04:57:42.850Z,9.83
2019-03-04T05:00:14.473Z,9.92
2019-03-04T05:02:40.578Z,9.90
2019-03-04T05:05:06.828Z,9.92
2019-03-04T05:07:32.617Z,9.89
2019-03-04T05:09:58.441Z,9.77
2019-03-04T05:12:24.543Z,9.79
2019-03-04T05:14:51.716Z,9.83
2019-03-04T05:17:17.809Z,9.85
2019-03-04T05:19:43.624Z,9.80
2019-03-04T05:22:09.451Z,9.73
2019-03-04T05:24:37.022Z,9.75
2019-03-04T05:27:02.864Z,9.72
2019-03-04T05:29:31.697Z,9.78
2019-03-04T05:31:57.535Z,9.81
2019-03-04T05:34:26.598Z,9.69
2019-03-04T05:36:52.415Z,9.59
2019-03-04T05:39:21.243Z,9.51
2019-03-04T05:41:47.386Z,9.49
2019-03-04T05:44:13.172Z,9.55
2019-03-04T05:46:39.000Z,9.54
2019-03-04T05:49:04.823Z,9.57
2019-03-04T05:51:33.646Z,9.56
2019-03-04T05:53:59.466Z,9.64
2019-03-04T05:56:28.324Z,9.69
2019-03-04T05:58:54.143Z,9.75
2019-03-04T06:01:25.666Z,9.80
2019-03-04T06:03:54.686Z,9.79
2019-03-04T06:06:38.957Z,9.78
2019-03-04T06:09:04.888Z,9.71
2019-03-04T06:11:30.658Z,9.62
2019-03-04T06:13:56.455Z,9.29
2019-03-04T06:16:22.266Z,9.14
2019-03-04T06:18:48.078Z,9.07
2019-03-04T06:21:13.919Z,9.05
2019-03-04T06:23:39.733Z,9.10
2019-03-04T06:26:05.869Z,9.15
2019-03-04T06:28:31.662Z,9.11
2019-03-04T06:30:57.730Z,9.15
2019-03-04T06:33:23.782Z,9.32
2019-03-04T06:35:49.889Z,9.30
2019-03-04T06:38:16.552Z,9.31
2019-03-04T06:40:42.655Z,9.32
2019-03-04T06:43:08.780Z,9.38
2019-03-04T06:45:34.623Z,9.41
2019-03-04T06:48:00.720Z,9.45
2019-03-04T06:50:44.374Z,9.55
2019-03-04T06:53:10.196Z,9.57
2019-03-04T06:55:54.462Z,9.43
2019-03-04T06:58:20.286Z,9.41
2019-03-04T07:00:48.909Z,9.32
2019-03-04T07:03:15.232Z,9.29
2019-03-04T07:05:48.365Z,9.78
2019-03-04T07:08:36.708Z,10.92
2019-03-04T07:11:02.858Z,12.03
2019-03-04T07:13:28.975Z,12.33
2019-03-04T07:15:55.067Z,12.39
2019-03-04T07:18:21.142Z,12.49
2019-03-04T07:20:46.995Z,12.68
2019-03-04T07:23:12.779Z,12.81
2019-03-04T07:25:38.569Z,12.85
2019-03-04T07:28:04.363Z,12.80
2019-03-04T07:30:30.438Z,12.89
2019-03-04T07:32:56.270Z,11.88
2019-03-04T07:35:22.089Z,12.84
2019-03-04T07:37:51.952Z,12.81
2019-03-04T07:40:19.658Z,12.74
2019-03-04T07:42:45.499Z,12.66
2019-03-04T07:45:11.496Z,12.55
2019-03-04T07:47:37.302Z,12.30
2019-03-04T07:50:06.233Z,12.18
2019-03-04T07:52:32.033Z,12.04
2019-03-04T07:54:57.844Z,11.83
2019-03-04T07:57:23.623Z,11.68
2019-03-04T07:59:49.420Z,11.58
2019-03-04T08:02:15.536Z,11.38
2019-03-04T08:04:41.346Z,10.89
2019-03-04T08:07:33.677Z,10.03
2019-03-04T08:10:24.706Z,9.32
2019-03-04T08:12:57.766Z,8.98
2019-03-04T08:15:23.570Z,8.72
2019-03-04T08:17:49.340Z,8.56
2019-03-04T08:20:15.165Z,8.45
2019-03-04T08:22:41.006Z,8.39
2019-03-04T08:25:08.662Z,8.39
2019-03-04T08:27:34.477Z,8.38
2019-03-04T08:30:00.637Z,8.33
2019-03-04T08:32:26.495Z,8.18
2019-03-04T08:34:52.587Z,8.02
2019-03-04T08:37:18.400Z,7.94
2019-03-04T08:39:44.210Z,8.04
2019-03-04T08:42:10.165Z,8.06
2019-03-04T08:44:36.003Z,8.24
2019-03-04T08:47:01.822Z,8.34
2019-03-04T08:49:27.950Z,8.39
2019-03-04T08:51:53.784Z,8.44
2019-03-04T08:54:19.874Z,8.58
2019-03-04T08:56:45.944Z,8.72
2019-03-04T08:59:11.754Z,8.91
2019-03-04T09:01:37.566Z,8.96
2019-03-04T09:04:03.394Z,9.05
2019-03-04T09:06:29.237Z,9.08
2019-03-04T09:08:55.308Z,9.10
2019-03-04T09:11:21.416Z,9.11
2019-03-04T09:13:47.226Z,9.12
2019-03-04T09:16:13.190Z,9.12
2019-03-04T09:18:38.971Z,9.09
2019-03-04T09:21:04.794Z,9.11
2019-03-04T09:23:30.623Z,9.16
2019-03-04T09:26:05.741Z,9.15
2019-03-04T09:28:31.534Z,9.25
2019-03-04T09:30:57.950Z,9.31
2019-03-04T09:33:23.755Z,9.38
2019-03-04T09:35:49.840Z,9.54
2019-03-04T09:38:15.632Z,9.66
2019-03-04T09:40:44.833Z,9.65
2019-03-04T09:43:10.641Z,9.74
2019-03-04T09:45:39.253Z,10.04
2019-03-04T09:48:04.554Z,10.12
2019-03-04T09:50:30.517Z,9.99
2019-03-04T09:52:56.697Z,9.85
2019-03-04T09:55:23.064Z,9.85
2019-03-04T09:57:52.006Z,9.82
2019-03-04T10:00:39.074Z,9.83
2019-03-04T10:03:14.889Z,9.79
2019-03-04T10:06:04.391Z,9.66
2019-03-04T10:08:34.046Z,9.62
2019-03-04T10:11:08.256Z,9.51
2019-03-04T10:13:37.893Z,9.50
2019-03-04T10:16:22.707Z,9.47
2019-03-04T10:19:01.784Z,9.47
2019-03-04T10:21:53.417Z,9.44
2019-03-04T10:24:38.337Z,9.47
2019-03-04T10:27:26.127Z,9.50
2019-03-04T10:30:04.512Z,9.49
2019-03-04T10:32:58.591Z,9.47
2019-03-04T10:35:30.972Z,9.55
2019-03-04T10:38:09.847Z,9.52
2019-03-04T10:40:51.817Z,9.56
2019-03-04T10:43:33.124Z,9.58
2019-03-04T10:46:05.602Z,9.59
2019-03-04T10:48:31.387Z,9.56
2019-03-04T10:50:57.474Z,9.55
2019-03-04T10:53:23.280Z,9.53
2019-03-04T10:55:49.085Z,9.53
2019-03-04T10:58:14.890Z,9.48
2019-03-04T11:00:41.123Z,9.42
2019-03-04T11:03:06.945Z,9.39
2019-03-04T11:05:32.985Z,9.36
2019-03-04T11:07:59.076Z,9.38
2019-03-04T11:10:24.895Z,9.41
2019-03-04T11:12:50.722Z,9.45
2019-03-04T11:15:24.449Z,9.46
2019-03-04T11:17:50.244Z,9.49
2019-03-04T11:20:16.434Z,9.59
2019-03-04T11:22:42.569Z,9.59
2019-03-04T11:25:08.566Z,9.56
2019-03-04T11:27:34.755Z,9.53
2019-03-04T11:30:00.555Z,9.49
2019-03-04T11:32:26.662Z,9.48
2019-03-04T11:34:52.449Z,9.48
2019-03-04T11:37:18.514Z,9.51
2019-03-04T11:39:52.282Z,9.53
2019-03-04T11:42:18.092Z,9.52
2019-03-04T11:44:43.897Z,9.53
2019-03-04T11:47:09.717Z,9.54
2019-03-04T11:49:35.524Z,9.55
2019-03-04T11:52:01.608Z,9.64
2019-03-04T11:54:27.396Z,9.62
2019-03-04T11:56:53.488Z,9.36
2019-03-04T11:59:19.308Z,9.63
2019-03-04T12:01:47.046Z,9.63
2019-03-04T12:04:12.875Z,9.62
2019-03-04T12:06:39.004Z,9.66
2019-03-04T12:09:06.738Z,9.61
2019-03-04T12:11:38.237Z,9.59
2019-03-04T12:14:00.288Z,9.59
2019-03-04T12:16:26.098Z,9.57
2019-03-04T12:18:51.906Z,9.56
2019-03-04T12:21:17.690Z,9.55
2019-03-04T12:23:43.542Z,9.52
2019-03-04T12:26:09.586Z,9.53
2019-03-04T12:28:35.387Z,9.48
2019-03-04T12:31:01.470Z,9.50
2019-03-04T12:33:27.292Z,9.54
2019-03-04T12:35:53.445Z,9.90
2019-03-04T12:38:19.515Z,10.17
2019-03-04T12:40:48.601Z,10.14
2019-03-04T12:43:14.701Z,10.31
2019-03-04T12:45:43.548Z,10.78
2019-03-04T12:48:09.356Z,11.15
2019-03-04T12:50:38.187Z,11.54
2019-03-04T12:53:04.320Z,11.49
2019-03-04T12:55:33.199Z,11.65
2019-03-04T12:57:59.085Z,11.82
2019-03-04T13:00:29.234Z,12.05
2019-03-04T13:02:57.828Z,11.97
2019-03-04T13:05:23.048Z,11.63
2019-03-04T13:07:48.879Z,11.71
2019-03-04T13:10:16.226Z,12.07
2019-03-04T13:12:42.856Z,12.16
2019-03-04T13:15:17.586Z,11.72
2019-03-04T13:17:43.404Z,11.76
2019-03-04T13:20:11.912Z,11.72
2019-03-04T13:22:38.096Z,11.93
2019-03-04T13:25:05.273Z,12.08
2019-03-04T13:27:31.070Z,12.32
2019-03-04T13:29:56.876Z,12.43
2019-03-04T13:32:22.669Z,12.34
2019-03-04T13:34:48.470Z,12.17
2019-03-04T13:37:14.398Z,12.31
2019-03-04T13:39:40.231Z,12.36
2019-03-04T13:42:06.025Z,12.23
2019-03-04T13:44:31.948Z,12.24
2019-03-04T13:46:57.755Z,12.23
2019-03-04T13:49:23.588Z,12.27
2019-03-04T13:51:49.648Z,12.26
2019-03-04T13:54:17.157Z,12.29
2019-03-04T13:56:42.971Z,12.41
2019-03-04T13:59:13.492Z,12.34
2019-03-04T14:01:39.338Z,12.78
2019-03-04T14:04:06.645Z,12.91
2019-03-04T14:06:32.465Z,12.71
2019-03-04T14:09:04.324Z,12.88
2019-03-04T14:11:30.142Z,12.84
2019-03-04T14:13:56.282Z,12.74
2019-03-04T14:16:22.070Z,12.46
2019-03-04T14:18:48.005Z,12.40
2019-03-04T14:21:14.084Z,12.30
2019-03-04T14:23:39.900Z,11.77
2019-03-04T14:26:08.516Z,11.42
2019-03-04T14:28:34.420Z,11.36
2019-03-04T14:31:02.987Z,11.44
2019-03-04T14:33:28.800Z,11.62
2019-03-04T14:35:57.671Z,11.82
2019-03-04T14:38:23.470Z,12.11
2019-03-04T14:40:52.528Z,11.86
2019-03-04T14:43:18.620Z,11.89
2019-03-04T14:45:47.711Z,11.97
2019-03-04T14:48:13.814Z,11.84
2019-03-04T14:50:42.421Z,11.76
2019-03-04T14:53:08.226Z,11.77
2019-03-04T14:55:38.873Z,11.59
2019-03-04T14:58:04.702Z,11.24
2019-03-04T15:00:38.978Z,11.08
2019-03-04T15:03:05.558Z,10.95
2019-03-04T15:05:31.651Z,10.90
2019-03-04T15:07:57.496Z,10.71
2019-03-04T15:10:23.390Z,10.48
2019-03-04T15:12:49.324Z,10.41
2019-03-04T15:15:22.592Z,10.36
2019-03-04T15:17:48.410Z,10.23
2019-03-04T15:20:17.645Z,9.91
2019-03-04T15:22:43.909Z,9.67
2019-03-04T15:25:13.504Z,9.55
2019-03-04T15:27:39.314Z,9.26
2019-03-04T15:30:08.945Z,8.94
2019-03-04T15:32:34.758Z,8.60
2019-03-04T15:35:00.884Z,7.91
2019-03-04T15:37:26.710Z,7.20
2019-03-04T15:39:52.524Z,6.64
2019-03-04T15:42:18.349Z,6.32
2019-03-04T15:44:44.457Z,6.21
2019-03-04T15:47:10.382Z,6.23
2019-03-04T15:49:36.301Z,6.19
2019-03-04T15:52:02.228Z,6.15
2019-03-04T15:54:28.064Z,6.09
2019-03-04T15:56:57.944Z,6.06
2019-03-04T15:59:23.740Z,6.05
2019-03-04T16:01:49.650Z,6.01
2019-03-04T16:04:15.473Z,6.06
2019-03-04T16:06:41.544Z,6.07
2019-03-04T16:09:32.052Z,6.12
2019-03-04T16:11:57.849Z,6.17
2019-03-04T16:14:23.964Z,6.17
2019-03-04T16:16:49.773Z,6.25
2019-03-04T16:19:15.603Z,6.29
2019-03-04T16:21:41.658Z,6.32
2019-03-04T16:24:07.490Z,6.37
2019-03-04T16:26:33.703Z,6.35
2019-03-04T16:28:59.599Z,6.26
2019-03-04T16:31:25.705Z,6.25
2019-03-04T16:33:51.735Z,6.21
2019-03-04T16:36:18.271Z,6.21
2019-03-04T16:38:44.176Z,6.23
2019-03-04T16:41:09.965Z,6.22
2019-03-04T16:43:35.792Z,6.30
2019-03-04T16:46:01.595Z,6.34
2019-03-04T16:48:27.693Z,6.40
2019-03-04T16:50:53.561Z,6.45
2019-03-04T16:53:26.113Z,6.45
2019-03-04T16:55:51.909Z,6.44
2019-03-04T16:58:18.004Z,6.35
2019-03-04T17:00:45.206Z,6.22
2019-03-04T17:03:11.339Z,6.12
2019-03-04T17:05:37.165Z,5.98
2019-03-04T17:08:03.122Z,5.89
2019-03-04T17:10:29.052Z,5.72
2019-03-04T17:12:54.941Z,5.72
2019-03-04T17:15:22.147Z,5.66
2019-03-04T17:17:48.329Z,5.60
2019-03-04T17:20:15.929Z,5.55
2019-03-04T17:22:42.316Z,5.50
2019-03-04T17:25:11.947Z,5.53
2019-03-04T17:27:37.766Z,5.49
2019-03-04T17:30:09.857Z,5.48
2019-03-04T17:32:35.986Z,5.46
2019-03-04T17:35:03.722Z,5.43
2019-03-04T17:37:29.824Z,5.38
2019-03-04T17:39:55.864Z,5.35
2019-03-04T17:42:21.693Z,5.36
2019-03-04T17:44:47.507Z,5.36
2019-03-04T17:47:13.436Z,5.34
2019-03-04T17:49:39.237Z,5.36
2019-03-04T17:52:05.164Z,5.36
2019-03-04T17:54:30.957Z,5.36
2019-03-04T17:56:56.786Z,5.35
2019-03-04T17:59:22.877Z,5.33
2019-03-04T18:01:48.884Z,5.29
2019-03-04T18:04:14.700Z,5.29
2019-03-04T18:06:40.554Z,5.27
2019-03-04T18:09:06.440Z,5.27
2019-03-04T18:11:35.588Z,5.24
2019-03-04T18:14:01.500Z,5.17
2019-03-04T18:16:30.370Z,5.16
2019-03-04T18:18:56.202Z,5.13
2019-03-04T18:21:24.087Z,5.11
2019-03-04T18:23:50.136Z,5.10
2019-03-04T18:26:22.538Z,5.10
2019-03-04T18:28:57.884Z,5.07
2019-03-04T18:31:42.894Z,5.08
2019-03-04T18:34:25.201Z,5.06
2019-03-04T18:37:14.695Z,5.06
2019-03-04T18:40:02.674Z,5.08
2019-03-04T18:43:05.727Z,5.14
2019-03-04T18:45:37.896Z,5.17
2019-03-04T18:48:12.774Z,5.21
2019-03-04T18:50:41.611Z,5.24
2019-03-04T18:53:07.431Z,5.24
2019-03-04T18:55:38.847Z,5.27
2019-03-04T18:58:04.676Z,5.27
2019-03-04T19:00:33.510Z,5.28
2019-03-04T19:02:59.575Z,5.28
2019-03-04T19:05:28.434Z,5.26
2019-03-04T19:07:54.254Z,5.26
2019-03-04T19:10:20.906Z,5.28
2019-03-04T19:12:46.985Z,5.38
2019-03-04T19:15:17.272Z,5.31
2019-03-04T19:17:43.113Z,5.27
2019-03-04T19:20:13.916Z,5.28
2019-03-04T19:22:40.021Z,5.34
2019-03-04T19:25:06.738Z,5.35
2019-03-04T19:27:32.543Z,5.35
2019-03-04T19:29:59.616Z,5.39
2019-03-04T19:32:25.448Z,5.41
2019-03-04T19:34:56.246Z,5.41
2019-03-04T19:37:22.080Z,5.43
2019-03-04T19:39:49.672Z,5.44
2019-03-04T19:42:15.581Z,5.47
2019-03-04T19:44:44.451Z,5.46
2019-03-04T19:47:10.384Z,5.41
2019-03-04T19:49:36.177Z,5.38
2019-03-04T19:52:01.984Z,5.34
2019-03-04T19:54:27.798Z,5.29
2019-03-04T19:56:56.690Z,5.24
2019-03-04T19:59:22.502Z,5.23
2019-03-04T20:01:51.618Z,5.19
2019-03-04T20:04:17.547Z,5.16
2019-03-04T20:06:46.126Z,5.00
2019-03-04T20:09:12.082Z,4.86
2019-03-04T20:11:41.247Z,4.69
2019-03-04T20:14:07.054Z,4.60
2019-03-04T20:16:35.899Z,4.62
2019-03-04T20:19:01.801Z,4.60
2019-03-04T20:21:30.912Z,4.62
2019-03-04T20:23:56.783Z,4.59
2019-03-04T20:26:22.833Z,4.51
2019-03-04T20:28:48.640Z,4.48
2019-03-04T20:31:14.590Z,4.45
2019-03-04T20:33:45.029Z,4.43
2019-03-04T20:36:11.091Z,4.43
2019-03-04T20:38:40.607Z,4.37
2019-03-04T20:41:06.513Z,4.30
2019-03-04T20:43:32.365Z,4.15
2019-03-04T20:45:58.529Z,4.13
2019-03-04T20:48:25.315Z,4.04
2019-03-04T20:50:51.378Z,4.00
2019-03-04T20:53:20.352Z,3.95
2019-03-04T20:55:46.384Z,3.90
2019-03-04T20:58:15.077Z,3.89
2019-03-04T21:00:40.985Z,3.89
2019-03-04T21:03:07.450Z,3.87
2019-03-04T21:05:35.072Z,3.86
2019-03-04T21:08:00.987Z,3.80
2019-03-04T21:10:27.202Z,3.81
2019-03-04T21:12:54.634Z,3.75
2019-03-04T21:15:25.058Z,3.79
2019-03-04T21:17:50.987Z,3.81
2019-03-04T21:20:17.666Z,3.84
2019-03-04T21:22:44.448Z,3.81
2019-03-04T21:26:03.475Z,3.78
2019-03-04T21:28:54.790Z,3.79
2019-03-04T21:31:27.438Z,3.77
2019-03-04T21:33:59.659Z,3.81
2019-03-04T21:36:50.478Z,3.86
2019-03-04T21:39:36.222Z,3.88
2019-03-04T21:42:08.360Z,3.89
2019-03-04T21:44:55.027Z,3.93
2019-03-04T21:47:45.676Z,3.94
2019-03-04T21:50:55.294Z,3.90
2019-03-04T21:53:31.108Z,3.94
2019-03-04T21:56:26.447Z,3.93
2019-03-04T21:58:54.646Z,3.98
2019-03-04T22:01:29.933Z,3.98
2019-03-04T22:03:56.410Z,3.98
2019-03-04T22:06:22.219Z,3.98
2019-03-04T22:08:48.042Z,4.04
2019-03-04T22:11:14.143Z,4.10
2019-03-04T22:13:39.961Z,4.15
2019-03-04T22:16:05.748Z,4.22
2019-03-04T22:18:31.705Z,4.29
2019-03-04T22:20:57.556Z,4.48
2019-03-04T22:23:23.332Z,4.57
2019-03-04T22:25:49.159Z,4.60
2019-03-04T22:28:14.972Z,4.59
2019-03-04T22:30:40.783Z,4.66
2019-03-04T22:33:06.700Z,4.70
2019-03-04T22:35:32.511Z,4.73
2019-03-04T22:37:58.755Z,4.74
2019-03-04T22:40:26.459Z,4.82
2019-03-04T22:42:52.247Z,4.82
2019-03-04T22:45:19.509Z,4.84
2019-03-04T22:47:46.322Z,4.84
2019-03-04T22:50:14.188Z,4.79
2019-03-04T22:52:40.178Z,4.77
2019-03-04T22:55:09.683Z,4.77
2019-03-04T22:57:35.508Z,4.78
2019-03-04T23:00:01.920Z,4.82
2019-03-04T23:02:28.021Z,4.85
2019-03-04T23:04:53.808Z,4.82
2019-03-04T23:07:19.621Z,4.84
2019-03-04T23:09:57.141Z,4.83
2019-03-04T23:12:29.870Z,4.81
2019-03-04T23:14:55.651Z,4.80
2019-03-04T23:17:21.582Z,4.74
2019-03-04T23:19:47.382Z,4.73
2019-03-04T23:22:13.204Z,4.66
2019-03-04T23:24:39.040Z,4.64
2019-03-04T23:27:04.831Z,4.69
2019-03-04T23:29:30.649Z,4.71
2019-03-04T23:31:56.472Z,4.73
2019-03-04T23:34:22.298Z,4.76
2019-03-04T23:36:48.117Z,4.79
2019-03-04T23:39:14.210Z,4.77
2019-03-04T23:41:40.002Z,4.79
2019-03-04T23:44:05.832Z,4.80
2019-03-04T23:46:31.924Z,4.88
2019-03-04T23:48:58.024Z,4.96
2019-03-04T23:51:23.849Z,4.93
2019-03-04T23:53:49.661Z,4.89
2019-03-04T23:56:15.816Z,4.88
2019-03-04T23:58:41.648Z,4.85
